Time;durP1;ratioP1;P1;durP2;ratioP2;P2;SDS_P1;SDS_P2;PMS_P1;PMS_P2;Temp;Humidity;BMP_temperature;BMP_pressure;BME280_temperature;BME280_humidity;BME280_pressure;Samples;Min_cycle;Max_cycle;Signal;HPM_P1;HPM_P2
2022/08/09 00:01:29;;;;;;;3.08;1.30;;;18.10;99.90;;;;;;5022549;28;20090;-84
2022/08/09 00:03:54;;;;;;;4.35;1.40;;;18.20;99.90;;;;;;5025038;28;20056;-86
2022/08/09 00:06:20;;;;;;;2.72;1.75;;;18.20;99.90;;;;;;5031521;28;20468;-87
2022/08/09 00:08:48;;;;;;;1.38;1.00;;;18.20;99.90;;;;;;5023889;28;20018;-88
2022/08/09 00:11:14;;;;;;;4.40;1.27;;;18.20;99.90;;;;;;5023781;28;20017;-87
2022/08/09 00:13:40;;;;;;;3.80;1.40;;;18.30;99.90;;;;;;5030317;28;20514;-88
2022/08/09 00:16:05;;;;;;;1.45;1.20;;;18.30;99.90;;;;;;5029076;28;20435;-88
2022/08/09 00:18:32;;;;;;;1.40;1.02;;;18.30;99.90;;;;;;5029378;28;20071;-86
2022/08/09 00:20:58;;;;;;;1.52;1.30;;;18.30;99.90;;;;;;5025484;28;20503;-86
2022/08/09 00:23:23;;;;;;;1.77;1.45;;;18.30;99.90;;;;;;5030824;28;20021;-84
2022/08/09 00:25:49;;;;;;;1.35;1.25;;;18.30;99.90;;;;;;5028351;28;20040;-85
2022/08/09 00:28:14;;;;;;;2.05;1.65;;;18.40;99.90;;;;;;5027213;28;20023;-84
2022/08/09 00:30:40;;;;;;;2.80;1.35;;;18.40;99.90;;;;;;5025839;28;20601;-85
2022/08/09 00:33:05;;;;;;;2.63;1.40;;;18.30;99.90;;;;;;5025400;28;20025;-84
2022/08/09 00:35:31;;;;;;;1.50;1.30;;;18.40;99.90;;;;;;5026350;28;20068;-83
2022/08/09 00:37:56;;;;;;;1.85;1.52;;;18.40;99.90;;;;;;5033602;28;20493;-84
2022/08/09 00:40:22;;;;;;;3.97;1.65;;;18.40;99.90;;;;;;5032186;28;20453;-84
2022/08/09 00:42:47;;;;;;;2.03;1.50;;;18.40;99.90;;;;;;5024657;28;20049;-84
2022/08/09 00:45:13;;;;;;;1.55;1.13;;;18.40;99.90;;;;;;5027629;28;20037;-84
2022/08/09 00:47:38;;;;;;;1.40;1.27;;;18.40;99.90;;;;;;5022365;28;20348;-85
2022/08/09 00:50:04;;;;;;;1.63;1.27;;;18.50;99.90;;;;;;5032334;28;20036;-85
2022/08/09 00:52:29;;;;;;;1.42;1.13;;;18.50;99.90;;;;;;5027510;28;20038;-84
2022/08/09 00:54:56;;;;;;;1.83;1.40;;;18.50;99.90;;;;;;5021070;28;20033;-87
2022/08/09 00:57:22;;;;;;;1.75;1.38;;;18.50;99.90;;;;;;5027539;28;20030;-86
2022/08/09 00:59:47;;;;;;;1.17;1.00;;;18.50;99.90;;;;;;5027500;28;20022;-84
2022/08/09 01:02:23;;;;;;;1.10;1.00;;;18.40;99.90;;;;;;5024984;28;20061;-85
2022/08/09 01:05:05;;;;;;;2.15;1.10;;;18.40;99.90;;;;;;5027663;28;20156;-84
2022/08/09 01:07:49;;;;;;;3.22;1.15;;;18.50;99.90;;;;;;5024090;28;20389;-85
2022/08/09 01:10:41;;;;;;;2.45;1.50;;;18.50;99.90;;;;;;5022436;28;20032;-84
2022/08/09 01:13:21;;;;;;;6.13;2.03;;;18.50;99.90;;;;;;5024484;28;20025;-84
2022/08/09 01:15:51;;;;;;;2.90;1.42;;;18.50;99.90;;;;;;5028626;28;20167;-83
2022/08/09 01:18:21;;;;;;;1.00;0.90;;;18.50;99.90;;;;;;5025599;28;20127;-84
2022/08/09 01:21:25;;;;;;;1.88;1.23;;;18.50;99.90;;;;;;5021163;28;20029;-84
2022/08/09 01:24:06;;;;;;;3.42;1.65;;;18.50;99.90;;;;;;5027964;28;20040;-84
2022/08/09 01:26:51;;;;;;;1.65;1.30;;;18.40;99.90;;;;;;5023267;28;20774;-85
2022/08/09 01:29:21;;;;;;;2.35;1.50;;;18.40;99.90;;;;;;5026390;28;20395;-86
2022/08/09 01:31:49;;;;;;;2.92;1.20;;;18.40;99.90;;;;;;5022592;28;20036;-85
2022/08/09 01:34:18;;;;;;;1.30;1.20;;;18.40;99.90;;;;;;5027705;28;20114;-85
2022/08/09 01:36:46;;;;;;;1.73;1.33;;;18.30;99.90;;;;;;5023800;28;20473;-85
2022/08/09 01:39:14;;;;;;;1.15;1.05;;;18.20;99.90;;;;;;5030988;28;20028;-85
2022/08/09 01:41:41;;;;;;;1.60;1.27;;;18.20;99.90;;;;;;5024240;28;20774;-85
2022/08/09 01:44:08;;;;;;;1.52;1.40;;;18.20;99.90;;;;;;5031315;28;20059;-85
2022/08/09 01:46:38;;;;;;;7.78;2.65;;;18.10;99.90;;;;;;5031205;28;20057;-85
2022/08/09 01:49:14;;;;;;;2.42;1.27;;;18.10;99.90;;;;;;5029290;28;20086;-85
2022/08/09 01:51:43;;;;;;;1.75;1.30;;;18.10;99.90;;;;;;5026957;28;20095;-85
2022/08/09 01:54:09;;;;;;;1.55;1.20;;;18.00;99.90;;;;;;5026050;28;20192;-85
2022/08/09 01:56:39;;;;;;;1.83;1.42;;;18.00;99.90;;;;;;5025947;28;20029;-83
2022/08/09 01:59:09;;;;;;;1.95;1.60;;;18.00;99.90;;;;;;5026247;28;20099;-83
2022/08/09 02:01:36;;;;;;;1.48;1.20;;;18.00;99.90;;;;;;5029494;28;20440;-83
2022/08/09 02:04:03;;;;;;;2.22;1.35;;;18.00;99.90;;;;;;5025155;28;20041;-83
2022/08/09 02:09:17;;;;;;;1.30;1.00;;;18.00;99.90;;;;;;5024756;28;20107;-84
2022/08/09 02:11:42;;;;;;;1.88;1.20;;;18.00;99.90;;;;;;5027068;28;20060;-85
2022/08/09 02:14:09;;;;;;;1.40;1.30;;;18.00;99.90;;;;;;5023099;28;20056;-85
2022/08/09 02:16:37;;;;;;;2.67;1.33;;;18.00;99.90;;;;;;5026167;28;20044;-85
2022/08/09 02:19:04;;;;;;;2.78;1.50;;;18.00;99.90;;;;;;5035936;28;20476;-86
2022/08/09 02:21:35;;;;;;;1.58;1.30;;;18.00;99.90;;;;;;5032898;28;20037;-84
2022/08/09 02:24:06;;;;;;;1.40;1.20;;;18.00;99.90;;;;;;5021354;28;20026;-85
2022/08/09 02:26:34;;;;;;;2.35;1.48;;;18.00;99.90;;;;;;5028398;28;20065;-84
2022/08/09 02:29:08;;;;;;;2.80;1.40;;;18.00;99.90;;;;;;5027732;28;20072;-84
2022/08/09 02:31:38;;;;;;;3.17;1.67;;;18.00;99.90;;;;;;5024950;28;20503;-84
2022/08/09 02:34:10;;;;;;;2.03;1.42;;;18.00;99.90;;;;;;5022975;28;20373;-84
2022/08/09 02:36:43;;;;;;;2.05;1.60;;;17.90;99.90;;;;;;5024438;28;20029;-84
2022/08/09 02:39:17;;;;;;;4.32;1.08;;;18.00;99.90;;;;;;5027353;28;20075;-82
2022/08/09 02:41:46;;;;;;;1.25;1.13;;;18.00;99.90;;;;;;5026534;28;20037;-82
2022/08/09 02:44:19;;;;;;;1.95;1.42;;;18.00;99.90;;;;;;5025650;28;20091;-82
2022/08/09 02:46:48;;;;;;;1.45;1.27;;;18.00;99.90;;;;;;5025111;28;20056;-83
2022/08/09 02:49:15;;;;;;;2.03;1.42;;;18.00;99.90;;;;;;5027030;28;20508;-83
2022/08/09 02:51:43;;;;;;;1.58;1.25;;;18.00;99.90;;;;;;5023627;28;20091;-83
2022/08/09 02:54:13;;;;;;;2.03;1.25;;;18.00;99.90;;;;;;5019703;28;20469;-82
2022/08/09 02:56:41;;;;;;;1.95;1.48;;;18.00;99.90;;;;;;5025042;28;20033;-82
2022/08/09 02:59:09;;;;;;;1.40;1.15;;;18.00;99.90;;;;;;5030763;28;20053;-82
2022/08/09 03:01:37;;;;;;;2.05;1.60;;;18.00;99.90;;;;;;5024674;28;20022;-82
2022/08/09 03:04:04;;;;;;;4.55;1.92;;;18.00;99.90;;;;;;5026527;28;20060;-82
2022/08/09 03:06:31;;;;;;;1.35;1.25;;;18.00;99.90;;;;;;5026196;28;20041;-84
2022/08/09 03:08:59;;;;;;;1.58;1.25;;;18.00;99.90;;;;;;5024513;28;20033;-83
2022/08/09 03:11:25;;;;;;;1.45;1.20;;;17.90;99.90;;;;;;5025129;28;20033;-82
2022/08/09 03:13:51;;;;;;;1.70;1.33;;;18.00;99.90;;;;;;5025809;28;20532;-82
2022/08/09 03:16:18;;;;;;;1.08;0.98;;;18.00;99.90;;;;;;5025668;28;20056;-87
2022/08/09 03:18:45;;;;;;;3.20;1.67;;;18.00;99.90;;;;;;5028093;28;20033;-82
2022/08/09 03:21:13;;;;;;;1.33;1.23;;;18.00;99.90;;;;;;5024603;28;20159;-80
2022/08/09 03:23:42;;;;;;;1.85;1.15;;;17.90;99.90;;;;;;5023260;28;20488;-82
2022/08/09 03:26:08;;;;;;;2.03;1.10;;;17.90;99.90;;;;;;5021295;28;20040;-80
2022/08/09 03:28:35;;;;;;;2.85;1.33;;;17.90;99.90;;;;;;5031637;28;20025;-84
2022/08/09 03:31:01;;;;;;;1.98;1.48;;;18.00;99.90;;;;;;5026154;28;20467;-83
2022/08/09 03:33:28;;;;;;;1.73;1.20;;;18.00;99.90;;;;;;5027981;28;20102;-83
2022/08/09 03:35:54;;;;;;;2.35;1.35;;;18.00;99.90;;;;;;5028112;28;20029;-82
2022/08/09 03:38:20;;;;;;;1.20;1.05;;;18.00;99.90;;;;;;5027778;28;20029;-83
2022/08/09 03:40:45;;;;;;;2.42;1.35;;;17.90;99.90;;;;;;5024525;28;20030;-82
2022/08/09 03:43:11;;;;;;;2.22;1.40;;;18.00;99.90;;;;;;5025418;28;20056;-81
2022/08/09 03:45:36;;;;;;;1.38;1.10;;;18.00;99.90;;;;;;5019052;28;20021;-80
2022/08/09 03:48:02;;;;;;;2.78;1.85;;;17.90;99.90;;;;;;5022327;28;20188;-82
2022/08/09 03:50:29;;;;;;;1.83;1.38;;;18.00;99.90;;;;;;5022195;28;20037;-84
2022/08/09 03:52:58;;;;;;;2.58;1.52;;;18.00;99.90;;;;;;5024742;28;20551;-89
2022/08/09 03:55:23;;;;;;;3.08;1.83;;;18.00;99.90;;;;;;5022999;28;20413;-87
2022/08/09 03:57:49;;;;;;;1.55;1.45;;;17.90;99.90;;;;;;5024981;28;20120;-86
2022/08/09 04:00:16;;;;;;;2.40;1.70;;;18.00;99.90;;;;;;5023366;28;20025;-84
2022/08/09 04:02:42;;;;;;;1.67;1.40;;;18.00;99.90;;;;;;5027728;28;20060;-86
2022/08/09 04:05:09;;;;;;;1.40;1.20;;;18.00;99.90;;;;;;5022672;28;20081;-84
2022/08/09 04:07:35;;;;;;;2.70;1.50;;;18.00;99.90;;;;;;5026373;28;20029;-84
2022/08/09 04:10:00;;;;;;;4.38;1.33;;;18.00;99.90;;;;;;5029165;28;20044;-84
2022/08/09 04:12:42;;;;;;;1.55;1.45;;;17.90;99.90;;;;;;5024185;28;20025;-85
2022/08/09 04:15:08;;;;;;;1.75;1.20;;;17.90;99.90;;;;;;5017928;28;20026;-88
2022/08/09 04:17:34;;;;;;;1.42;1.15;;;18.00;99.90;;;;;;5028637;28;20128;-87
2022/08/09 04:19:59;;;;;;;1.70;1.48;;;18.00;99.90;;;;;;5019906;28;20484;-88
2022/08/09 04:22:25;;;;;;;1.25;1.15;;;18.00;99.90;;;;;;5023537;28;20021;-89
2022/08/09 04:24:50;;;;;;;1.98;1.45;;;18.10;99.90;;;;;;5023364;28;20025;-88
2022/08/09 04:27:16;;;;;;;1.92;1.33;;;18.00;99.90;;;;;;5024921;28;20128;-87
2022/08/09 04:29:42;;;;;;;3.45;2.00;;;18.00;99.90;;;;;;5022939;28;20499;-87
2022/08/09 04:32:07;;;;;;;2.97;1.58;;;18.10;99.90;;;;;;5025056;28;20453;-88
2022/08/09 04:34:33;;;;;;;2.40;1.63;;;18.10;99.90;;;;;;5024225;28;20025;-87
2022/08/09 04:36:59;;;;;;;3.08;1.35;;;18.20;99.90;;;;;;5030712;28;20072;-84
2022/08/09 04:39:25;;;;;;;2.08;1.55;;;18.10;99.90;;;;;;5026530;28;20109;-84
2022/08/09 04:41:51;;;;;;;1.40;1.25;;;18.20;99.90;;;;;;5024395;28;20163;-84
2022/08/09 04:44:17;;;;;;;1.40;1.23;;;18.20;99.90;;;;;;5024229;28;20033;-84
2022/08/09 04:46:42;;;;;;;2.45;1.40;;;18.30;99.90;;;;;;5018334;28;20116;-85
2022/08/09 04:49:07;;;;;;;2.03;1.55;;;18.30;99.90;;;;;;5029618;28;20049;-86
2022/08/09 04:51:33;;;;;;;2.17;1.48;;;18.30;99.90;;;;;;5022792;28;20060;-87
2022/08/09 04:53:59;;;;;;;1.50;1.17;;;18.30;99.90;;;;;;5023164;28;20040;-87
2022/08/09 04:56:25;;;;;;;2.15;1.40;;;18.40;99.90;;;;;;5024845;28;20101;-86
2022/08/09 04:58:50;;;;;;;2.45;1.90;;;18.40;99.90;;;;;;5028909;28;20044;-84
2022/08/09 05:01:16;;;;;;;1.85;1.50;;;18.40;99.90;;;;;;5028784;28;20022;-84
2022/08/09 05:03:41;;;;;;;1.67;1.42;;;18.50;99.90;;;;;;5034480;28;20033;-85
2022/08/09 05:06:07;;;;;;;5.13;1.60;;;18.50;99.90;;;;;;5024219;28;20025;-84
2022/08/09 05:08:33;;;;;;;2.72;1.60;;;18.50;99.90;;;;;;5023748;28;20037;-83
2022/08/09 05:11:00;;;;;;;2.67;1.80;;;18.40;99.90;;;;;;5024384;28;20032;-84
2022/08/09 05:13:25;;;;;;;1.88;1.58;;;18.50;99.90;;;;;;5025725;28;20034;-83
2022/08/09 05:15:51;;;;;;;1.58;1.30;;;18.60;99.90;;;;;;5026342;28;20021;-84
2022/08/09 05:18:16;;;;;;;1.40;1.25;;;18.60;99.90;;;;;;5029473;28;20018;-83
2022/08/09 05:20:42;;;;;;;1.52;1.30;;;18.70;99.90;;;;;;5024277;28;20601;-83
2022/08/09 05:23:07;;;;;;;1.73;1.10;;;18.70;99.90;;;;;;5026402;28;20035;-82
2022/08/09 05:25:33;;;;;;;2.55;1.58;;;18.70;99.90;;;;;;5023923;28;20398;-82
2022/08/09 05:27:59;;;;;;;2.42;1.70;;;18.80;99.90;;;;;;5022928;28;20045;-82
2022/08/09 05:30:24;;;;;;;2.53;1.77;;;18.80;99.90;;;;;;5025873;28;20053;-83
2022/08/09 05:32:49;;;;;;;2.65;1.42;;;18.90;99.90;;;;;;5025310;28;20033;-84
2022/08/09 05:35:15;;;;;;;1.77;1.45;;;18.90;99.90;;;;;;5025114;28;20018;-83
2022/08/09 05:37:40;;;;;;;1.90;1.58;;;19.00;99.90;;;;;;5025297;28;20774;-84
2022/08/09 05:40:06;;;;;;;2.50;1.75;;;19.10;99.90;;;;;;5025231;28;20037;-84
2022/08/09 05:42:32;;;;;;;1.92;1.55;;;19.10;99.90;;;;;;5026735;28;20108;-83
2022/08/09 05:44:59;;;;;;;2.30;1.48;;;19.20;99.90;;;;;;5024262;28;20037;-83
2022/08/09 05:47:25;;;;;;;5.60;1.77;;;19.20;99.90;;;;;;5026921;28;20033;-84
2022/08/09 05:49:52;;;;;;;2.63;1.98;;;19.30;99.90;;;;;;5026851;28;20519;-89
2022/08/09 05:52:18;;;;;;;1.52;1.30;;;19.40;99.90;;;;;;5027598;28;20416;-85
2022/08/09 05:54:43;;;;;;;2.17;1.45;;;19.40;99.90;;;;;;5057698;28;20036;-85
2022/08/09 05:57:09;;;;;;;1.63;1.40;;;19.50;99.90;;;;;;5026092;28;20028;-82
2022/08/09 05:59:35;;;;;;;2.03;1.80;;;19.60;99.70;;;;;;5028314;28;20022;-84
2022/08/09 06:02:00;;;;;;;1.45;1.35;;;19.70;99.80;;;;;;5024734;28;20025;-84
2022/08/09 06:04:26;;;;;;;2.05;1.38;;;19.60;99.60;;;;;;5021453;28;20036;-81
2022/08/09 06:06:51;;;;;;;2.15;1.52;;;19.60;99.20;;;;;;5025815;28;20051;-84
2022/08/09 06:09:18;;;;;;;1.90;1.67;;;19.70;99.70;;;;;;5023619;28;20112;-84
2022/08/09 06:11:44;;;;;;;2.58;1.20;;;19.80;98.70;;;;;;5024789;28;21012;-84
2022/08/09 06:14:09;;;;;;;1.63;1.50;;;19.90;98.30;;;;;;5026807;28;20665;-79
2022/08/09 06:16:35;;;;;;;2.05;1.50;;;19.80;98.30;;;;;;5024735;28;20105;-79
2022/08/09 06:19:00;;;;;;;1.77;1.40;;;19.60;98.20;;;;;;5027195;28;20025;-78
2022/08/09 06:21:26;;;;;;;1.98;1.15;;;19.70;98.80;;;;;;5028592;28;20044;-79
2022/08/09 06:23:51;;;;;;;1.33;1.00;;;19.70;97.90;;;;;;5027071;28;20034;-78
2022/08/09 06:26:19;;;;;;;2.45;1.40;;;19.80;96.90;;;;;;5028902;28;20589;-79
2022/08/09 06:28:44;;;;;;;1.48;1.35;;;19.90;97.40;;;;;;5027819;28;20044;-79
2022/08/09 06:31:10;;;;;;;3.28;1.67;;;20.00;97.30;;;;;;5030568;28;20116;-79
2022/08/09 06:33:36;;;;;;;2.05;1.50;;;20.00;97.20;;;;;;5028542;28;20033;-79
2022/08/09 06:36:01;;;;;;;1.65;1.55;;;20.10;97.80;;;;;;5022817;28;20024;-78
2022/08/09 06:38:27;;;;;;;1.67;1.23;;;20.20;96.00;;;;;;5027806;28;20384;-80
2022/08/09 06:40:52;;;;;;;3.83;1.60;;;20.30;95.00;;;;;;5028179;28;20053;-79
2022/08/09 06:43:18;;;;;;;2.20;1.20;;;20.50;94.40;;;;;;5026047;28;20459;-77
2022/08/09 06:45:43;;;;;;;2.47;1.35;;;20.60;92.90;;;;;;5027737;28;20087;-78
2022/08/09 06:48:08;;;;;;;3.83;1.63;;;20.60;92.80;;;;;;5026743;28;20527;-79
2022/08/09 06:50:34;;;;;;;2.58;1.30;;;20.60;92.90;;;;;;5023296;28;20052;-80
2022/08/09 06:53:00;;;;;;;4.53;1.77;;;20.60;92.30;;;;;;5022242;28;20033;-81
2022/08/09 06:55:30;;;;;;;1.75;1.40;;;20.70;92.00;;;;;;5025180;28;20038;-77
2022/08/09 06:57:56;;;;;;;1.77;1.42;;;20.70;92.30;;;;;;5016270;28;20041;-80
2022/08/09 07:00:22;;;;;;;1.73;1.20;;;20.90;92.60;;;;;;5010990;28;20384;-75
2022/08/09 07:02:47;;;;;;;1.42;1.33;;;20.90;91.70;;;;;;5020357;28;20036;-80
2022/08/09 07:05:12;;;;;;;1.65;1.13;;;20.90;91.40;;;;;;5021336;28;20033;-80
2022/08/09 07:07:38;;;;;;;1.40;1.08;;;21.00;91.20;;;;;;5022753;28;20489;-82
2022/08/09 07:10:04;;;;;;;1.45;1.15;;;21.00;90.50;;;;;;5018774;28;20075;-82
2022/08/09 07:12:30;;;;;;;1.20;1.00;;;21.00;90.50;;;;;;5022440;28;20033;-80
2022/08/09 07:14:55;;;;;;;1.15;1.05;;;21.00;88.40;;;;;;5023027;28;20071;-81
2022/08/09 07:17:21;;;;;;;1.48;0.90;;;20.90;90.00;;;;;;5024884;28;20071;-81
2022/08/09 07:19:46;;;;;;;4.38;1.10;;;21.00;89.00;;;;;;5022132;28;20104;-80
2022/08/09 07:22:12;;;;;;;1.33;1.10;;;21.00;89.60;;;;;;5019988;28;20037;-80
2022/08/09 07:24:37;;;;;;;1.10;1.00;;;21.00;87.40;;;;;;5022938;28;20025;-80
2022/08/09 07:27:03;;;;;;;1.33;1.17;;;21.00;88.60;;;;;;5021175;28;20079;-80
2022/08/09 07:29:29;;;;;;;1.52;1.23;;;21.10;89.50;;;;;;5024933;28;20045;-76
2022/08/09 07:31:54;;;;;;;2.58;1.30;;;21.00;85.80;;;;;;5020393;28;20033;-79
2022/08/09 07:34:20;;;;;;;1.50;1.25;;;21.00;86.60;;;;;;5023604;28;20091;-79
2022/08/09 07:36:46;;;;;;;1.50;1.20;;;21.10;89.00;;;;;;5025365;28;20025;-76
2022/08/09 07:39:12;;;;;;;1.70;1.20;;;21.10;88.10;;;;;;5019356;28;20086;-77
2022/08/09 07:41:38;;;;;;;1.42;0.90;;;21.10;88.60;;;;;;5022836;28;20488;-77
2022/08/09 07:44:04;;;;;;;1.35;1.10;;;21.00;86.60;;;;;;5026073;28;20029;-77
2022/08/09 07:46:29;;;;;;;1.73;1.25;;;21.00;86.60;;;;;;5021866;28;20547;-76
2022/08/09 07:48:55;;;;;;;1.65;0.82;;;21.00;87.60;;;;;;5022588;28;20029;-75
2022/08/09 07:51:21;;;;;;;4.78;1.50;;;21.20;85.20;;;;;;5024295;28;20067;-75
2022/08/09 07:53:49;;;;;;;1.55;1.42;;;21.20;85.80;;;;;;5019411;28;20033;-76
2022/08/09 07:56:15;;;;;;;1.40;1.10;;;21.20;85.70;;;;;;5024369;28;20508;-76
2022/08/09 07:58:40;;;;;;;4.20;1.38;;;21.30;84.80;;;;;;5024854;28;20026;-77
2022/08/09 08:01:06;;;;;;;3.00;1.13;;;21.30;83.70;;;;;;5026415;28;20489;-76
2022/08/09 08:03:31;;;;;;;1.45;0.93;;;21.30;83.30;;;;;;5025878;28;20025;-76
2022/08/09 08:05:57;;;;;;;1.63;1.30;;;21.30;82.50;;;;;;5018035;28;20037;-76
2022/08/09 08:08:23;;;;;;;1.05;0.95;;;21.40;82.10;;;;;;5026233;28;20082;-75
2022/08/09 08:10:49;;;;;;;0.95;0.90;;;21.40;82.50;;;;;;5025426;28;20022;-77
2022/08/09 08:13:15;;;;;;;1.20;1.10;;;21.50;82.00;;;;;;5025751;28;20045;-75
2022/08/09 08:15:40;;;;;;;1.77;1.00;;;21.50;81.80;;;;;;5025110;28;20026;-76
2022/08/09 08:18:05;;;;;;;1.75;1.10;;;21.50;79.00;;;;;;5021424;28;20026;-76
2022/08/09 08:20:31;;;;;;;0.80;0.80;;;21.60;79.30;;;;;;5023885;28;20384;-77
2022/08/09 08:22:58;;;;;;;1.00;0.90;;;21.60;77.70;;;;;;5022289;28;20096;-76
2022/08/09 08:25:24;;;;;;;1.48;1.10;;;21.60;78.50;;;;;;5023773;28;20065;-75
2022/08/09 08:27:49;;;;;;;1.20;1.10;;;21.70;77.70;;;;;;5025058;28;20444;-75
2022/08/09 08:30:17;;;;;;;1.55;1.00;;;21.60;78.60;;;;;;5025069;28;20041;-76
2022/08/09 08:32:43;;;;;;;1.80;1.58;;;21.60;78.30;;;;;;5019710;28;20029;-77
2022/08/09 08:35:09;;;;;;;1.10;1.00;;;21.60;78.40;;;;;;5024299;28;20553;-76
2022/08/09 08:37:34;;;;;;;1.70;1.15;;;21.70;75.90;;;;;;5029857;28;20033;-76
2022/08/09 08:40:01;;;;;;;4.90;1.42;;;21.70;77.10;;;;;;5028007;28;20053;-78
2022/08/09 08:42:27;;;;;;;1.85;1.08;;;21.90;75.20;;;;;;5026547;28;20044;-76
2022/08/09 08:44:57;;;;;;;1.33;0.82;;;21.90;77.20;;;;;;5022424;28;20086;-87
2022/08/09 08:47:27;;;;;;;1.10;1.00;;;22.00;75.60;;;;;;5029054;28;20051;-85
2022/08/09 08:49:54;;;;;;;2.13;1.23;;;22.10;73.90;;;;;;5029549;28;20030;-83
2022/08/09 08:52:25;;;;;;;1.58;1.48;;;22.20;75.20;;;;;;5028789;28;20500;-86
2022/08/09 08:54:54;;;;;;;;;;;22.30;74.90;;;;;;5026314;28;20443;-88
2022/08/09 08:57:21;;;;;;;0.93;0.82;;;22.40;72.90;;;;;;5028520;28;19994;-87
2022/08/09 08:59:47;;;;;;;0.93;0.90;;;22.50;73.70;;;;;;5027759;28;20148;-86
2022/08/09 09:02:25;;;;;;;0.80;0.80;;;22.50;74.90;;;;;;5026733;28;20030;-87
2022/08/09 09:04:56;;;;;;;1.85;1.20;;;22.40;74.60;;;;;;5029001;28;20053;-87
2022/08/09 09:07:23;;;;;;;0.90;0.77;;;22.50;74.10;;;;;;5029387;28;20528;-85
2022/08/09 09:09:49;;;;;;;1.02;0.88;;;22.40;73.70;;;;;;5027725;28;20044;-86
2022/08/09 09:12:21;;;;;;;1.55;1.38;;;22.40;73.10;;;;;;5028507;28;20490;-87
2022/08/09 09:14:48;;;;;;;1.10;1.00;;;22.30;72.50;;;;;;5019185;28;20033;-86
2022/08/09 09:17:15;;;;;;;1.48;1.10;;;22.50;73.10;;;;;;5026747;28;20060;-86
2022/08/09 09:19:41;;;;;;;1.40;1.00;;;22.70;72.10;;;;;;5027103;28;20029;-85
2022/08/09 09:22:14;;;;;;;1.50;1.10;;;22.60;71.70;;;;;;5029727;28;20384;-86
2022/08/09 09:24:48;;;;;;;1.20;1.10;;;22.70;71.70;;;;;;5028009;28;20053;-79
2022/08/09 09:27:25;;;;;;;1.80;1.25;;;22.90;69.90;;;;;;5032279;28;20025;-82
2022/08/09 09:29:52;;;;;;;1.20;0.93;;;23.10;70.40;;;;;;5028368;28;20045;-83
2022/08/09 09:32:23;;;;;;;1.17;1.08;;;23.00;70.50;;;;;;5040745;28;20029;-82
2022/08/09 09:35:05;;;;;;;2.55;1.38;;;23.10;69.70;;;;;;5034759;28;20032;-83
2022/08/09 09:37:31;;;;;;;6.10;1.23;;;23.30;68.50;;;;;;5041484;28;20104;-84
2022/08/09 09:39:57;;;;;;;1.00;0.90;;;23.40;68.30;;;;;;5033746;28;20128;-84
2022/08/09 09:42:26;;;;;;;1.70;1.20;;;23.50;69.30;;;;;;5032721;28;20030;-83
2022/08/09 09:44:57;;;;;;;6.32;1.63;;;23.60;66.10;;;;;;5037787;28;20075;-84
2022/08/09 09:47:23;;;;;;;1.45;1.10;;;23.60;67.50;;;;;;5035065;28;20034;-85
2022/08/09 09:49:59;;;;;;;1.05;0.98;;;23.60;67.90;;;;;;5030909;28;20048;-83
2022/08/09 09:52:28;;;;;;;1.20;0.75;;;23.60;66.60;;;;;;5036211;28;20032;-86
2022/08/09 09:55:02;;;;;;;1.08;0.98;;;23.60;66.70;;;;;;5028909;28;20033;-84
2022/08/09 09:57:28;;;;;;;2.47;1.10;;;23.60;67.80;;;;;;5028986;28;20022;-84
2022/08/09 09:59:53;;;;;;;1.25;1.13;;;23.60;67.10;;;;;;5023528;28;20045;-82
2022/08/09 10:02:21;;;;;;;1.17;0.85;;;23.70;65.90;;;;;;5026566;28;20101;-81
2022/08/09 10:05:04;;;;;;;1.48;1.20;;;24.00;65.20;;;;;;5027101;28;20033;-82
2022/08/09 10:07:30;;;;;;;1.10;0.95;;;23.80;66.20;;;;;;5020511;28;20151;-80
2022/08/09 10:09:56;;;;;;;1.05;0.82;;;23.50;67.80;;;;;;5029551;28;20146;-82
2022/08/09 10:12:28;;;;;;;1.38;1.02;;;23.40;67.20;;;;;;5026912;28;20037;-81
2022/08/09 10:15:14;;;;;;;2.45;1.48;;;23.70;65.70;;;;;;5021491;28;20029;-81
2022/08/09 10:17:41;;;;;;;1.00;0.88;;;24.00;62.60;;;;;;5025844;28;20040;-81
2022/08/09 10:20:16;;;;;;;1.08;1.00;;;24.00;65.60;;;;;;5026929;28;20026;-81
2022/08/09 10:22:41;;;;;;;3.83;1.30;;;23.90;65.90;;;;;;5028515;28;20082;-80
2022/08/09 10:25:08;;;;;;;1.77;0.80;;;24.00;63.90;;;;;;5027694;28;20104;-78
2022/08/09 10:27:34;;;;;;;1.48;1.10;;;23.40;66.90;;;;;;5027815;28;20017;-77
2022/08/09 10:30:05;;;;;;;1.83;1.60;;;23.40;65.70;;;;;;5025263;28;20053;-77
2022/08/09 10:32:31;;;;;;;0.95;0.90;;;23.40;65.00;;;;;;5026342;28;20025;-78
2022/08/09 10:34:57;;;;;;;1.63;1.00;;;23.40;64.80;;;;;;5021630;28;20034;-82
2022/08/09 10:37:23;;;;;;;1.83;1.38;;;23.50;64.30;;;;;;5028755;28;20029;-83
2022/08/09 10:39:49;;;;;;;1.52;1.00;;;23.90;63.40;;;;;;5032024;28;20049;-82
2022/08/09 10:42:15;;;;;;;1.10;1.00;;;24.00;63.00;;;;;;5027209;28;20052;-83
2022/08/09 10:44:48;;;;;;;1.52;1.40;;;24.70;64.00;;;;;;5029075;28;20037;-82
2022/08/09 10:47:36;;;;;;;1.83;1.10;;;25.40;59.00;;;;;;5026725;28;20036;-83
2022/08/09 10:50:16;;;;;;;1.20;1.10;;;24.90;60.70;;;;;;5031903;28;20473;-81
2022/08/09 10:52:55;;;;;;;1.17;0.98;;;24.70;60.40;;;;;;5024010;28;20041;-81
2022/08/09 10:55:28;;;;;;;3.72;1.85;;;24.50;60.90;;;;;;5026835;28;20384;-81
2022/08/09 10:57:55;;;;;;;1.02;0.95;;;24.90;60.60;;;;;;5025782;28;20484;-82
2022/08/09 11:00:35;;;;;;;2.72;1.42;;;24.90;62.50;;;;;;5030683;28;20033;-83
2022/08/09 11:03:01;;;;;;;2.55;1.70;;;25.10;59.00;;;;;;5030877;28;20033;-82
2022/08/09 11:05:28;;;;;;;3.05;1.80;;;25.40;59.70;;;;;;5032064;28;20064;-83
2022/08/09 11:07:53;;;;;;;1.40;1.30;;;25.50;58.50;;;;;;5039536;28;20525;-84
2022/08/09 11:10:40;;;;;;;0.80;0.80;;;24.70;59.20;;;;;;5039876;28;20036;-82
2022/08/09 11:13:16;;;;;;;3.70;1.45;;;24.30;59.80;;;;;;5038474;28;20033;-83
2022/08/09 11:15:43;;;;;;;2.75;1.63;;;24.30;60.50;;;;;;5033309;28;20113;-83
2022/08/09 11:18:11;;;;;;;1.15;1.05;;;24.40;59.90;;;;;;5033733;28;20120;-83
2022/08/09 11:20:46;;;;;;;1.40;1.25;;;25.20;55.40;;;;;;5028503;28;20040;-81
2022/08/09 11:23:13;;;;;;;4.10;1.80;;;25.60;54.10;;;;;;5036719;28;20037;-82
2022/08/09 11:25:41;;;;;;;7.78;1.88;;;25.80;54.10;;;;;;5033670;28;20060;-84
2022/08/09 11:29:07;;;;;;;1.23;1.13;;;26.00;55.50;;;;;;5036425;28;20041;-90
2022/08/09 11:31:46;;;;;;;1.20;1.10;;;26.20;55.60;;;;;;5035643;28;20634;-87
2022/08/09 11:34:45;;;;;;;1.27;1.00;;;26.90;53.80;;;;;;5027772;28;20029;-83
2022/08/09 11:37:26;;;;;;;2.77;1.60;;;26.40;56.10;;;;;;5028766;28;20045;-83
2022/08/09 11:40:06;;;;;;;2.42;1.42;;;27.30;53.50;;;;;;5036313;28;20275;-83
2022/08/09 11:42:40;;;;;;;1.05;1.00;;;26.80;54.80;;;;;;5036521;28;20025;-80
2022/08/09 11:45:23;;;;;;;1.95;1.17;;;25.80;56.40;;;;;;5030154;28;20072;-78
2022/08/09 11:47:54;;;;;;;1.83;1.50;;;25.70;56.90;;;;;;5032209;28;20033;-76
2022/08/09 11:50:20;;;;;;;2.35;1.20;;;25.40;58.20;;;;;;5027341;28;20056;-77
2022/08/09 11:52:58;;;;;;;6.80;2.08;;;25.90;56.60;;;;;;5030004;28;20025;-76
2022/08/09 11:55:32;;;;;;;1.30;1.20;;;25.60;57.20;;;;;;5027470;28;20105;-80
2022/08/09 11:58:00;;;;;;;1.30;1.17;;;25.00;58.00;;;;;;5033600;28;20026;-77
2022/08/09 12:00:28;;;;;;;1.65;1.40;;;24.70;58.30;;;;;;5019912;28;20068;-89
2022/08/09 12:02:55;;;;;;;1.50;1.40;;;25.10;59.10;;;;;;5032080;28;20037;-80
2022/08/09 12:05:21;;;;;;;4.93;1.75;;;25.50;56.80;;;;;;5022463;28;20512;-77
2022/08/09 12:07:46;;;;;;;1.60;1.50;;;25.70;56.80;;;;;;5026653;28;20087;-79
2022/08/09 12:10:12;;;;;;;1.17;1.10;;;25.70;58.40;;;;;;5022667;28;20083;-81
2022/08/09 12:12:48;;;;;;;0.90;0.90;;;25.90;56.40;;;;;;5018901;28;20159;-82
2022/08/09 12:15:25;;;;;;;1.80;1.38;;;26.20;55.40;;;;;;5027394;28;20029;-79
2022/08/09 12:17:52;;;;;;;1.42;1.30;;;26.00;54.90;;;;;;5026716;28;20042;-82
2022/08/09 12:20:21;;;;;;;2.30;1.50;;;27.00;54.70;;;;;;5018853;28;20021;-87
2022/08/09 12:22:47;;;;;;;2.20;1.60;;;27.40;53.90;;;;;;5016091;28;20033;-79
2022/08/09 12:25:15;;;;;;;1.40;1.25;;;28.70;51.50;;;;;;5014552;28;20044;-84
2022/08/09 12:27:41;;;;;;;1.25;1.15;;;29.30;51.60;;;;;;5023506;28;20109;-79
2022/08/09 12:30:07;;;;;;;1.30;1.20;;;29.60;51.00;;;;;;5019297;28;20132;-87
2022/08/09 12:32:33;;;;;;;1.27;1.10;;;30.00;49.40;;;;;;5025078;28;20036;-82
2022/08/09 12:34:59;;;;;;;1.10;1.00;;;29.30;49.60;;;;;;5009931;28;20100;-84
2022/08/09 12:37:36;;;;;;;1.20;0.98;;;28.90;50.50;;;;;;5022105;28;20389;-83
2022/08/09 12:40:10;;;;;;;1.20;1.05;;;28.50;50.60;;;;;;5027833;28;20021;-84
2022/08/09 12:42:41;;;;;;;1.02;1.02;;;28.30;48.90;;;;;;5026023;28;20033;-83
2022/08/09 12:45:08;;;;;;;0.90;0.90;;;29.20;49.00;;;;;;5024135;28;20029;-88
2022/08/09 12:47:37;;;;;;;1.40;1.30;;;30.00;48.20;;;;;;5024297;28;20029;-93
2022/08/09 12:50:16;;;;;;;1.50;1.30;;;31.00;49.00;;;;;;5027324;28;20496;-87
2022/08/09 12:52:43;;;;;;;0.90;0.90;;;31.50;47.10;;;;;;5015012;28;20038;-86
2022/08/09 12:55:09;;;;;;;1.45;1.10;;;31.10;47.20;;;;;;5014115;28;20313;-87
2022/08/09 12:57:39;;;;;;;1.23;1.13;;;31.00;46.30;;;;;;5015843;28;20531;-85